sensor_id;sensor_type;location;lat;lon;timestamp;pressure;altitude;pressure_sealevel;temperature;humidity
64368;BME280;50692;53.314;-6.300;2023-03-14T00:02:01;99031.91;;;4.62;77.86
64368;BME280;50692;53.314;-6.300;2023-03-14T00:04:47;99031.59;;;4.52;78.31
64368;BME280;50692;53.314;-6.300;2023-03-14T00:07:34;99038.84;;;4.63;78.12
64368;BME280;50692;53.314;-6.300;2023-03-14T00:10:21;99049.38;;;4.61;78.34
64368;BME280;50692;53.314;-6.300;2023-03-14T00:13:07;99055.66;;;4.59;78.75
64368;BME280;50692;53.314;-6.300;2023-03-14T00:15:53;99070.59;;;4.56;79.27
64368;BME280;50692;53.314;-6.300;2023-03-14T00:18:40;99078.75;;;4.50;79.40
64368;BME280;50692;53.314;-6.300;2023-03-14T00:21:25;99073.00;;;4.44;80.35
64368;BME280;50692;53.314;-6.300;2023-03-14T00:24:11;99078.19;;;4.45;80.75
64368;BME280;50692;53.314;-6.300;2023-03-14T00:26:57;99091.25;;;4.45;80.99
64368;BME280;50692;53.314;-6.300;2023-03-14T00:29:43;99097.31;;;4.46;81.17
64368;BME280;50692;53.314;-6.300;2023-03-14T00:32:29;99110.41;;;4.46;81.55
64368;BME280;50692;53.314;-6.300;2023-03-14T00:35:15;99114.81;;;4.45;82.08
64368;BME280;50692;53.314;-6.300;2023-03-14T00:38:01;99107.69;;;4.47;82.04
64368;BME280;50692;53.314;-6.300;2023-03-14T00:40:46;99119.34;;;4.42;82.80
64368;BME280;50692;53.314;-6.300;2023-03-14T00:43:32;99130.56;;;4.44;83.03
64368;BME280;50692;53.314;-6.300;2023-03-14T00:46:18;99119.81;;;4.32;82.97
64368;BME280;50692;53.314;-6.300;2023-03-14T00:49:04;99139.50;;;4.40;83.41
64368;BME280;50692;53.314;-6.300;2023-03-14T00:51:50;99127.59;;;4.34;83.63
64368;BME280;50692;53.314;-6.300;2023-03-14T00:54:36;99146.19;;;4.45;83.61
64368;BME280;50692;53.314;-6.300;2023-03-14T00:57:22;99156.66;;;4.45;83.53
64368;BME280;50692;53.314;-6.300;2023-03-14T01:00:09;99166.97;;;4.48;83.35
64368;BME280;50692;53.314;-6.300;2023-03-14T01:02:57;99167.03;;;4.47;83.56
64368;BME280;50692;53.314;-6.300;2023-03-14T01:05:43;99182.03;;;4.43;83.81
64368;BME280;50692;53.314;-6.300;2023-03-14T01:08:29;99187.22;;;4.45;83.57
64368;BME280;50692;53.314;-6.300;2023-03-14T01:11:17;99197.84;;;4.42;83.80
64368;BME280;50692;53.314;-6.300;2023-03-14T01:14:04;99196.16;;;4.41;83.87
64368;BME280;50692;53.314;-6.300;2023-03-14T01:16:49;99205.69;;;4.42;83.68
64368;BME280;50692;53.314;-6.300;2023-03-14T01:19:35;99214.38;;;4.42;83.77
64368;BME280;50692;53.314;-6.300;2023-03-14T01:22:21;99209.38;;;4.38;84.32
64368;BME280;50692;53.314;-6.300;2023-03-14T01:25:09;99216.69;;;4.48;84.35
64368;BME280;50692;53.314;-6.300;2023-03-14T01:27:55;99239.13;;;4.52;83.80
64368;BME280;50692;53.314;-6.300;2023-03-14T01:30:41;99236.44;;;4.54;83.59
64368;BME280;50692;53.314;-6.300;2023-03-14T01:33:27;99250.34;;;4.54;83.81
64368;BME280;50692;53.314;-6.300;2023-03-14T01:36:13;99256.63;;;4.52;83.91
64368;BME280;50692;53.314;-6.300;2023-03-14T01:38:59;99267.06;;;4.52;84.31
64368;BME280;50692;53.314;-6.300;2023-03-14T01:41:45;99289.53;;;4.56;84.17
64368;BME280;50692;53.314;-6.300;2023-03-14T01:47:35;99311.75;;;4.65;84.88
64368;BME280;50692;53.314;-6.300;2023-03-14T01:50:20;99318.47;;;4.70;84.91
64368;BME280;50692;53.314;-6.300;2023-03-14T01:53:06;99305.84;;;4.61;85.48
64368;BME280;50692;53.314;-6.300;2023-03-14T01:55:55;99328.94;;;4.70;85.91
64368;BME280;50692;53.314;-6.300;2023-03-14T01:58:44;99355.13;;;4.70;86.34
64368;BME280;50692;53.314;-6.300;2023-03-14T02:01:31;99350.03;;;4.67;86.55
64368;BME280;50692;53.314;-6.300;2023-03-14T02:04:18;99368.44;;;4.66;87.33
64368;BME280;50692;53.314;-6.300;2023-03-14T02:07:39;99386.97;;;4.61;87.69
64368;BME280;50692;53.314;-6.300;2023-03-14T02:10:31;99397.53;;;4.60;88.14
64368;BME280;50692;53.314;-6.300;2023-03-14T02:13:19;99405.38;;;4.60;88.45
64368;BME280;50692;53.314;-6.300;2023-03-14T02:16:06;99418.06;;;4.67;88.25
64368;BME280;50692;53.314;-6.300;2023-03-14T02:18:52;99418.47;;;4.60;87.63
64368;BME280;50692;53.314;-6.300;2023-03-14T02:21:48;99424.91;;;4.52;87.96
64368;BME280;50692;53.314;-6.300;2023-03-14T02:24:42;99432.44;;;4.41;88.53
64368;BME280;50692;53.314;-6.300;2023-03-14T02:27:28;99442.91;;;4.41;88.50
64368;BME280;50692;53.314;-6.300;2023-03-14T02:30:26;99462.28;;;4.37;88.75
64368;BME280;50692;53.314;-6.300;2023-03-14T02:33:22;99461.78;;;4.29;89.40
64368;BME280;50692;53.314;-6.300;2023-03-14T02:36:11;99476.75;;;4.25;89.27
64368;BME280;50692;53.314;-6.300;2023-03-14T02:39:09;99474.50;;;4.18;89.56
64368;BME280;50692;53.314;-6.300;2023-03-14T02:41:57;99492.69;;;4.21;89.79
64368;BME280;50692;53.314;-6.300;2023-03-14T02:44:55;99498.47;;;4.27;89.54
64368;BME280;50692;53.314;-6.300;2023-03-14T02:47:54;99506.91;;;4.34;89.24
64368;BME280;50692;53.314;-6.300;2023-03-14T02:50:44;99519.13;;;4.33;89.05
64368;BME280;50692;53.314;-6.300;2023-03-14T02:53:33;99516.56;;;4.32;89.11
64368;BME280;50692;53.314;-6.300;2023-03-14T02:56:19;99503.13;;;4.40;89.01
64368;BME280;50692;53.314;-6.300;2023-03-14T02:59:05;99483.00;;;4.42;88.78
64368;BME280;50692;53.314;-6.300;2023-03-14T03:01:51;99479.31;;;4.46;88.63
64368;BME280;50692;53.314;-6.300;2023-03-14T03:04:37;99484.41;;;4.49;88.43
64368;BME280;50692;53.314;-6.300;2023-03-14T03:07:23;99483.88;;;4.60;87.79
64368;BME280;50692;53.314;-6.300;2023-03-14T03:10:09;99463.00;;;4.58;87.65
64368;BME280;50692;53.314;-6.300;2023-03-14T03:12:55;99522.44;;;4.56;87.56
64368;BME280;50692;53.314;-6.300;2023-03-14T03:15:41;99533.66;;;4.58;87.68
64368;BME280;50692;53.314;-6.300;2023-03-14T03:18:27;99535.66;;;4.53;87.57
64368;BME280;50692;53.314;-6.300;2023-03-14T03:21:12;99549.78;;;4.68;87.37
64368;BME280;50692;53.314;-6.300;2023-03-14T03:23:58;99555.88;;;4.68;87.28
64368;BME280;50692;53.314;-6.300;2023-03-14T03:26:44;99560.47;;;4.63;87.45
64368;BME280;50692;53.314;-6.300;2023-03-14T03:29:30;99576.19;;;4.63;87.69
64368;BME280;50692;53.314;-6.300;2023-03-14T03:32:16;99565.00;;;4.60;87.75
64368;BME280;50692;53.314;-6.300;2023-03-14T03:35:04;99585.72;;;4.64;87.67
64368;BME280;50692;53.314;-6.300;2023-03-14T03:37:50;99610.81;;;4.68;87.13
64368;BME280;50692;53.314;-6.300;2023-03-14T03:40:36;99613.31;;;4.71;87.30
64368;BME280;50692;53.314;-6.300;2023-03-14T03:43:22;99617.00;;;4.67;87.65
64368;BME280;50692;53.314;-6.300;2023-03-14T03:46:08;99653.56;;;4.69;87.19
64368;BME280;50692;53.314;-6.300;2023-03-14T03:48:58;99675.19;;;4.53;88.06
64368;BME280;50692;53.314;-6.300;2023-03-14T03:51:44;99683.00;;;4.55;87.83
64368;BME280;50692;53.314;-6.300;2023-03-14T03:54:30;99675.91;;;4.57;88.07
64368;BME280;50692;53.314;-6.300;2023-03-14T03:57:16;99668.31;;;4.51;88.43
64368;BME280;50692;53.314;-6.300;2023-03-14T04:00:03;99663.28;;;4.46;88.70
64368;BME280;50692;53.314;-6.300;2023-03-14T04:02:50;99673.84;;;4.45;88.39
64368;BME280;50692;53.314;-6.300;2023-03-14T04:05:36;99685.91;;;4.47;88.10
64368;BME280;50692;53.314;-6.300;2023-03-14T04:08:22;99690.31;;;4.47;87.74
64368;BME280;50692;53.314;-6.300;2023-03-14T04:11:08;99698.28;;;4.44;87.75
64368;BME280;50692;53.314;-6.300;2023-03-14T04:13:54;99695.44;;;4.29;87.65
64368;BME280;50692;53.314;-6.300;2023-03-14T04:16:39;99739.63;;;4.36;87.87
64368;BME280;50692;53.314;-6.300;2023-03-14T04:19:25;99755.75;;;4.26;88.50
64368;BME280;50692;53.314;-6.300;2023-03-14T04:22:11;99770.88;;;4.18;88.52
64368;BME280;50692;53.314;-6.300;2023-03-14T04:24:57;99778.00;;;4.15;88.64
64368;BME280;50692;53.314;-6.300;2023-03-14T04:27:42;99779.25;;;4.06;88.84
64368;BME280;50692;53.314;-6.300;2023-03-14T04:30:28;99782.91;;;4.02;88.94
64368;BME280;50692;53.314;-6.300;2023-03-14T04:33:14;99797.91;;;3.97;88.81
64368;BME280;50692;53.314;-6.300;2023-03-14T04:36:04;99796.31;;;3.94;88.51
64368;BME280;50692;53.314;-6.300;2023-03-14T04:38:50;99812.84;;;3.95;88.27
64368;BME280;50692;53.314;-6.300;2023-03-14T04:41:35;99828.22;;;3.80;88.49
64368;BME280;50692;53.314;-6.300;2023-03-14T04:44:21;99827.78;;;3.69;88.85
64368;BME280;50692;53.314;-6.300;2023-03-14T04:47:07;99840.13;;;3.66;89.09
64368;BME280;50692;53.314;-6.300;2023-03-14T04:49:53;99852.59;;;3.57;89.21
64368;BME280;50692;53.314;-6.300;2023-03-14T04:52:38;99857.28;;;3.49;89.41
64368;BME280;50692;53.314;-6.300;2023-03-14T04:55:24;99864.38;;;3.46;89.86
64368;BME280;50692;53.314;-6.300;2023-03-14T04:58:10;99862.50;;;3.49;89.61
64368;BME280;50692;53.314;-6.300;2023-03-14T05:01:01;99877.22;;;3.52;89.67
64368;BME280;50692;53.314;-6.300;2023-03-14T05:03:48;99890.28;;;3.52;89.57
64368;BME280;50692;53.314;-6.300;2023-03-14T05:06:33;99885.94;;;3.51;89.44
64368;BME280;50692;53.314;-6.300;2023-03-14T05:09:20;99892.94;;;3.50;89.75
64368;BME280;50692;53.314;-6.300;2023-03-14T05:12:06;99900.03;;;3.47;89.78
64368;BME280;50692;53.314;-6.300;2023-03-14T05:14:52;99925.38;;;3.45;89.76
64368;BME280;50692;53.314;-6.300;2023-03-14T05:17:38;99918.56;;;3.41;89.46
64368;BME280;50692;53.314;-6.300;2023-03-14T05:20:23;99937.59;;;3.44;89.42
64368;BME280;50692;53.314;-6.300;2023-03-14T05:23:09;99940.47;;;3.36;89.31
64368;BME280;50692;53.314;-6.300;2023-03-14T05:25:55;99938.19;;;3.27;89.29
64368;BME280;50692;53.314;-6.300;2023-03-14T05:28:41;99955.72;;;3.24;89.52
64368;BME280;50692;53.314;-6.300;2023-03-14T05:31:27;99961.06;;;3.21;88.97
64368;BME280;50692;53.314;-6.300;2023-03-14T05:34:13;99955.94;;;3.18;89.00
64368;BME280;50692;53.314;-6.300;2023-03-14T05:36:58;99962.28;;;3.10;88.73
64368;BME280;50692;53.314;-6.300;2023-03-14T05:39:44;99966.66;;;3.10;88.46
64368;BME280;50692;53.314;-6.300;2023-03-14T05:42:30;99968.72;;;3.00;88.86
64368;BME280;50692;53.314;-6.300;2023-03-14T05:45:16;99972.53;;;2.90;89.28
64368;BME280;50692;53.314;-6.300;2023-03-14T05:48:02;99971.69;;;2.89;89.17
64368;BME280;50692;53.314;-6.300;2023-03-14T05:50:48;99979.56;;;2.88;88.80
64368;BME280;50692;53.314;-6.300;2023-03-14T05:53:33;99988.59;;;2.78;89.24
64368;BME280;50692;53.314;-6.300;2023-03-14T05:56:19;99989.09;;;2.62;89.58
64368;BME280;50692;53.314;-6.300;2023-03-14T05:59:05;100011.81;;;2.59;89.99
64368;BME280;50692;53.314;-6.300;2023-03-14T06:01:52;100004.91;;;2.58;89.90
64368;BME280;50692;53.314;-6.300;2023-03-14T06:04:38;100021.31;;;2.61;90.07
64368;BME280;50692;53.314;-6.300;2023-03-14T06:07:24;100020.56;;;2.58;89.62
64368;BME280;50692;53.314;-6.300;2023-03-14T06:10:10;100028.50;;;2.55;90.06
64368;BME280;50692;53.314;-6.300;2023-03-14T06:12:56;100040.72;;;2.53;89.84
64368;BME280;50692;53.314;-6.300;2023-03-14T06:15:41;100048.69;;;2.48;90.08
64368;BME280;50692;53.314;-6.300;2023-03-14T06:18:27;100054.59;;;2.53;90.04
64368;BME280;50692;53.314;-6.300;2023-03-14T06:21:13;100056.44;;;2.50;89.88
64368;BME280;50692;53.314;-6.300;2023-03-14T06:23:59;100060.13;;;2.44;89.94
64368;BME280;50692;53.314;-6.300;2023-03-14T06:26:44;100066.28;;;2.42;90.09
64368;BME280;50692;53.314;-6.300;2023-03-14T06:29:30;100069.09;;;2.34;90.03
64368;BME280;50692;53.314;-6.300;2023-03-14T06:32:16;100078.22;;;2.49;89.88
64368;BME280;50692;53.314;-6.300;2023-03-14T06:35:04;100085.28;;;2.45;89.34
64368;BME280;50692;53.314;-6.300;2023-03-14T06:37:50;100087.19;;;2.40;89.83
64368;BME280;50692;53.314;-6.300;2023-03-14T06:40:36;100094.91;;;2.43;89.80
64368;BME280;50692;53.314;-6.300;2023-03-14T06:43:21;100092.53;;;2.35;90.12
64368;BME280;50692;53.314;-6.300;2023-03-14T06:46:07;100111.69;;;2.34;90.30
64368;BME280;50692;53.314;-6.300;2023-03-14T06:48:53;100112.50;;;2.36;90.48
64368;BME280;50692;53.314;-6.300;2023-03-14T06:51:39;100117.53;;;2.43;90.16
64368;BME280;50692;53.314;-6.300;2023-03-14T06:54:25;100118.56;;;2.37;90.02
64368;BME280;50692;53.314;-6.300;2023-03-14T06:57:11;100127.19;;;2.39;89.91
64368;BME280;50692;53.314;-6.300;2023-03-14T06:59:56;100122.97;;;2.35;89.82
64368;BME280;50692;53.314;-6.300;2023-03-14T07:02:42;100135.25;;;2.31;89.85
64368;BME280;50692;53.314;-6.300;2023-03-14T07:05:28;100145.50;;;2.37;90.03
64368;BME280;50692;53.314;-6.300;2023-03-14T07:08:14;100153.19;;;2.42;89.44
64368;BME280;50692;53.314;-6.300;2023-03-14T07:11:00;100161.94;;;2.41;89.43
64368;BME280;50692;53.314;-6.300;2023-03-14T07:13:45;100174.75;;;2.49;89.18
64368;BME280;50692;53.314;-6.300;2023-03-14T07:16:31;100181.72;;;2.48;88.80
64368;BME280;50692;53.314;-6.300;2023-03-14T07:19:18;100186.72;;;2.56;88.62
64368;BME280;50692;53.314;-6.300;2023-03-14T07:22:05;100194.47;;;2.59;88.58
64368;BME280;50692;53.314;-6.300;2023-03-14T07:24:50;100209.97;;;2.63;88.25
64368;BME280;50692;53.314;-6.300;2023-03-14T07:27:36;100208.22;;;2.64;88.50
64368;BME280;50692;53.314;-6.300;2023-03-14T07:30:22;100216.88;;;2.66;88.46
64368;BME280;50692;53.314;-6.300;2023-03-14T07:33:08;100213.09;;;2.76;88.20
64368;BME280;50692;53.314;-6.300;2023-03-14T07:35:54;100219.88;;;2.82;87.64
64368;BME280;50692;53.314;-6.300;2023-03-14T07:38:39;100233.44;;;2.95;87.08
64368;BME280;50692;53.314;-6.300;2023-03-14T07:41:26;100237.44;;;3.06;86.47
64368;BME280;50692;53.314;-6.300;2023-03-14T07:44:11;100236.13;;;3.21;86.13
64368;BME280;50692;53.314;-6.300;2023-03-14T07:46:57;100240.34;;;3.25;84.92
64368;BME280;50692;53.314;-6.300;2023-03-14T07:49:43;100257.38;;;3.39;84.73
64368;BME280;50692;53.314;-6.300;2023-03-14T07:52:29;100264.13;;;3.46;84.27
64368;BME280;50692;53.314;-6.300;2023-03-14T07:55:14;100267.22;;;3.58;83.58
64368;BME280;50692;53.314;-6.300;2023-03-14T07:58:01;100280.56;;;3.77;84.27
64368;BME280;50692;53.314;-6.300;2023-03-14T08:00:48;100280.03;;;3.94;82.29
64368;BME280;50692;53.314;-6.300;2023-03-14T08:03:33;100288.84;;;4.17;81.16
64368;BME280;50692;53.314;-6.300;2023-03-14T08:06:19;100289.81;;;4.14;80.37
64368;BME280;50692;53.314;-6.300;2023-03-14T08:09:06;100296.31;;;4.02;80.25
64368;BME280;50692;53.314;-6.300;2023-03-14T08:11:52;100302.38;;;4.03;80.41
64368;BME280;50692;53.314;-6.300;2023-03-14T08:14:39;100309.53;;;3.98;80.16
64368;BME280;50692;53.314;-6.300;2023-03-14T08:17:25;100292.03;;;4.00;80.23
64368;BME280;50692;53.314;-6.300;2023-03-14T08:20:11;100320.00;;;4.24;80.87
64368;BME280;50692;53.314;-6.300;2023-03-14T08:23:00;100308.47;;;4.30;80.18
64368;BME280;50692;53.314;-6.300;2023-03-14T08:25:48;100316.00;;;4.39;79.74
64368;BME280;50692;53.314;-6.300;2023-03-14T08:28:34;100316.97;;;4.62;79.78
64368;BME280;50692;53.314;-6.300;2023-03-14T08:31:20;100305.75;;;4.58;78.16
64368;BME280;50692;53.314;-6.300;2023-03-14T08:34:06;100318.25;;;4.50;77.39
64368;BME280;50692;53.314;-6.300;2023-03-14T08:36:52;100322.09;;;4.40;77.82
64368;BME280;50692;53.314;-6.300;2023-03-14T08:39:38;100321.84;;;4.21;77.75
64368;BME280;50692;53.314;-6.300;2023-03-14T08:42:24;100341.59;;;4.29;78.35
64368;BME280;50692;53.314;-6.300;2023-03-14T08:45:15;100341.06;;;4.46;78.72
64368;BME280;50692;53.314;-6.300;2023-03-14T08:48:01;100339.75;;;4.85;77.75
64368;BME280;50692;53.314;-6.300;2023-03-14T08:50:47;100347.81;;;5.27;77.39
64368;BME280;50692;53.314;-6.300;2023-03-14T08:53:33;100354.81;;;5.73;75.48
64368;BME280;50692;53.314;-6.300;2023-03-14T08:56:19;100351.97;;;6.01;71.27
64368;BME280;50692;53.314;-6.300;2023-03-14T08:59:05;100365.38;;;6.16;70.78
64368;BME280;50692;53.314;-6.300;2023-03-14T09:01:51;100362.59;;;6.20;69.96
64368;BME280;50692;53.314;-6.300;2023-03-14T09:04:38;100370.38;;;6.44;69.92
64368;BME280;50692;53.314;-6.300;2023-03-14T09:07:24;100363.31;;;6.66;68.64
64368;BME280;50692;53.314;-6.300;2023-03-14T09:10:10;100362.41;;;6.88;66.06
64368;BME280;50692;53.314;-6.300;2023-03-14T09:12:56;100364.88;;;6.91;66.26
64368;BME280;50692;53.314;-6.300;2023-03-14T09:15:43;100377.75;;;7.17;66.05
64368;BME280;50692;53.314;-6.300;2023-03-14T09:18:30;100368.94;;;7.37;64.39
64368;BME280;50692;53.314;-6.300;2023-03-14T09:21:16;100375.16;;;7.55;64.50
64368;BME280;50692;53.314;-6.300;2023-03-14T09:24:02;100373.81;;;7.84;63.87
64368;BME280;50692;53.314;-6.300;2023-03-14T09:26:47;100368.00;;;8.14;63.49
64368;BME280;50692;53.314;-6.300;2023-03-14T09:29:35;100364.69;;;8.10;62.28
64368;BME280;50692;53.314;-6.300;2023-03-14T09:32:20;100368.28;;;8.08;61.79
64368;BME280;50692;53.314;-6.300;2023-03-14T09:35:06;100364.03;;;8.05;61.64
64368;BME280;50692;53.314;-6.300;2023-03-14T09:37:52;100367.81;;;8.00;62.11
64368;BME280;50692;53.314;-6.300;2023-03-14T09:40:38;100378.31;;;8.18;62.52
64368;BME280;50692;53.314;-6.300;2023-03-14T09:43:25;100379.84;;;8.41;61.74
64368;BME280;50692;53.314;-6.300;2023-03-14T09:46:13;100369.56;;;8.54;60.91
64368;BME280;50692;53.314;-6.300;2023-03-14T09:49:00;100384.38;;;8.57;60.50
64368;BME280;50692;53.314;-6.300;2023-03-14T09:51:47;100384.56;;;8.52;61.05
64368;BME280;50692;53.314;-6.300;2023-03-14T09:55:05;100399.00;;;8.62;60.75
64368;BME280;50692;53.314;-6.300;2023-03-14T09:57:57;100406.50;;;8.70;60.52
64368;BME280;50692;53.314;-6.300;2023-03-14T10:00:44;100405.44;;;8.57;61.12
64368;BME280;50692;53.314;-6.300;2023-03-14T10:03:34;100409.56;;;8.80;60.79
64368;BME280;50692;53.314;-6.300;2023-03-14T10:06:23;100405.28;;;8.77;59.34
64368;BME280;50692;53.314;-6.300;2023-03-14T10:09:19;100416.22;;;8.87;60.10
64368;BME280;50692;53.314;-6.300;2023-03-14T10:12:10;100419.94;;;9.00;59.62
64368;BME280;50692;53.314;-6.300;2023-03-14T10:15:03;100422.28;;;9.06;59.27
64368;BME280;50692;53.314;-6.300;2023-03-14T10:17:50;100440.03;;;9.53;58.67
64368;BME280;50692;53.314;-6.300;2023-03-14T10:20:39;100435.78;;;9.67;58.40
64368;BME280;50692;53.314;-6.300;2023-03-14T10:23:28;100436.53;;;10.02;57.23
64368;BME280;50692;53.314;-6.300;2023-03-14T10:26:16;100440.28;;;9.98;55.68
64368;BME280;50692;53.314;-6.300;2023-03-14T10:29:11;100435.66;;;9.36;56.84
64368;BME280;50692;53.314;-6.300;2023-03-14T10:32:03;100449.06;;;9.49;57.56
64368;BME280;50692;53.314;-6.300;2023-03-14T10:37:59;100448.63;;;10.06;57.56
64368;BME280;50692;53.314;-6.300;2023-03-14T10:40:48;100437.88;;;10.56;56.04
64368;BME280;50692;53.314;-6.300;2023-03-14T10:43:35;100434.81;;;10.94;56.25
64368;BME280;50692;53.314;-6.300;2023-03-14T10:46:26;100438.13;;;10.98;54.29
64368;BME280;50692;53.314;-6.300;2023-03-14T10:49:26;100441.22;;;10.90;53.84
64368;BME280;50692;53.314;-6.300;2023-03-14T10:55:08;100441.47;;;10.71;53.54
64368;BME280;50692;53.314;-6.300;2023-03-14T10:57:55;100441.63;;;10.52;55.34
64368;BME280;50692;53.314;-6.300;2023-03-14T11:00:41;100427.50;;;10.53;54.92
64368;BME280;50692;53.314;-6.300;2023-03-14T11:03:28;100444.44;;;10.95;54.19
64368;BME280;50692;53.314;-6.300;2023-03-14T11:09:39;100448.50;;;11.74;50.98
64368;BME280;50692;53.314;-6.300;2023-03-14T11:25:33;100443.00;;;10.60;52.59
64368;BME280;50692;53.314;-6.300;2023-03-14T11:28:41;100429.50;;;10.80;53.59
64368;BME280;50692;53.314;-6.300;2023-03-14T11:31:36;100443.03;;;11.48;52.18
64368;BME280;50692;53.314;-6.300;2023-03-14T11:34:28;100451.28;;;11.58;50.64
64368;BME280;50692;53.314;-6.300;2023-03-14T11:37:33;100451.81;;;11.35;50.09
64368;BME280;50692;53.314;-6.300;2023-03-14T11:40:21;100446.25;;;11.25;51.09
64368;BME280;50692;53.314;-6.300;2023-03-14T11:46:01;100462.78;;;11.28;48.95
64368;BME280;50692;53.314;-6.300;2023-03-14T11:49:06;100452.44;;;11.24;50.24
64368;BME280;50692;53.314;-6.300;2023-03-14T11:52:04;100445.59;;;11.05;49.17
64368;BME280;50692;53.314;-6.300;2023-03-14T11:58:34;100450.44;;;10.37;50.81
64368;BME280;50692;53.314;-6.300;2023-03-14T12:01:27;100416.72;;;10.26;51.56
64368;BME280;50692;53.314;-6.300;2023-03-14T12:07:19;100448.06;;;10.32;51.81
64368;BME280;50692;53.314;-6.300;2023-03-14T12:10:05;100445.75;;;10.11;52.68
64368;BME280;50692;53.314;-6.300;2023-03-14T12:12:51;100447.34;;;9.81;51.68
64368;BME280;50692;53.314;-6.300;2023-03-14T12:15:49;100431.88;;;9.74;51.88
64368;BME280;50692;53.314;-6.300;2023-03-14T12:18:39;100447.03;;;9.70;51.73
64368;BME280;50692;53.314;-6.300;2023-03-14T12:21:46;100457.25;;;9.60;53.22
64368;BME280;50692;53.314;-6.300;2023-03-14T12:24:35;100470.88;;;9.35;56.53
64368;BME280;50692;53.314;-6.300;2023-03-14T12:30:41;100494.28;;;8.34;65.34
64368;BME280;50692;53.314;-6.300;2023-03-14T12:33:28;100488.09;;;7.98;68.26
64368;BME280;50692;53.314;-6.300;2023-03-14T12:36:29;100498.97;;;7.90;70.40
64368;BME280;50692;53.314;-6.300;2023-03-14T12:42:15;100508.06;;;7.83;71.47
64368;BME280;50692;53.314;-6.300;2023-03-14T12:45:26;100506.03;;;7.69;70.61
64368;BME280;50692;53.314;-6.300;2023-03-14T12:48:22;100513.25;;;7.45;71.49
64368;BME280;50692;53.314;-6.300;2023-03-14T12:51:17;100523.06;;;7.41;73.10
64368;BME280;50692;53.314;-6.300;2023-03-14T12:57:28;100522.38;;;7.36;73.39
64368;BME280;50692;53.314;-6.300;2023-03-14T13:00:21;100527.13;;;7.28;73.52
64368;BME280;50692;53.314;-6.300;2023-03-14T13:03:19;100524.41;;;7.09;74.51
64368;BME280;50692;53.314;-6.300;2023-03-14T13:06:09;100523.75;;;7.25;75.06
64368;BME280;50692;53.314;-6.300;2023-03-14T13:08:55;100521.16;;;7.45;74.42
64368;BME280;50692;53.314;-6.300;2023-03-14T13:11:43;100516.88;;;7.42;74.26
64368;BME280;50692;53.314;-6.300;2023-03-14T13:14:30;100525.59;;;7.43;73.90
64368;BME280;50692;53.314;-6.300;2023-03-14T13:17:24;100533.09;;;7.32;74.30
64368;BME280;50692;53.314;-6.300;2023-03-14T13:20:24;100523.22;;;7.37;72.91
64368;BME280;50692;53.314;-6.300;2023-03-14T13:23:26;100520.34;;;7.63;72.89
64368;BME280;50692;53.314;-6.300;2023-03-14T13:26:14;100521.22;;;7.83;71.82
64368;BME280;50692;53.314;-6.300;2023-03-14T13:29:21;100517.00;;;7.99;70.45
64368;BME280;50692;53.314;-6.300;2023-03-14T13:32:20;100524.50;;;8.46;68.34
64368;BME280;50692;53.314;-6.300;2023-03-14T13:35:18;100520.31;;;8.78;67.03
64368;BME280;50692;53.314;-6.300;2023-03-14T13:38:04;100477.19;;;8.62;65.71
64368;BME280;50692;53.314;-6.300;2023-03-14T13:40:51;100530.44;;;8.69;65.76
64368;BME280;50692;53.314;-6.300;2023-03-14T13:43:41;100526.16;;;8.66;66.41
64368;BME280;50692;53.314;-6.300;2023-03-14T13:46:29;100528.75;;;9.21;64.20
64368;BME280;50692;53.314;-6.300;2023-03-14T13:49:25;100533.66;;;10.13;61.68
64368;BME280;50692;53.314;-6.300;2023-03-14T13:52:28;100530.28;;;10.74;57.92
64368;BME280;50692;53.314;-6.300;2023-03-14T13:55:17;100531.66;;;11.27;56.41
64368;BME280;50692;53.314;-6.300;2023-03-14T13:58:03;100528.91;;;11.73;54.92
64368;BME280;50692;53.314;-6.300;2023-03-14T14:00:58;100528.94;;;12.02;53.88
64368;BME280;50692;53.314;-6.300;2023-03-14T14:03:48;100531.19;;;12.36;52.60
64368;BME280;50692;53.314;-6.300;2023-03-14T14:06:44;100534.31;;;12.43;51.98
64368;BME280;50692;53.314;-6.300;2023-03-14T14:09:37;100522.59;;;13.14;50.00
64368;BME280;50692;53.314;-6.300;2023-03-14T14:12:35;100531.06;;;13.46;49.02
64368;BME280;50692;53.314;-6.300;2023-03-14T14:15:26;100539.38;;;13.41;49.24
64368;BME280;50692;53.314;-6.300;2023-03-14T14:18:15;100538.66;;;13.78;48.25
64368;BME280;50692;53.314;-6.300;2023-03-14T14:21:02;100542.16;;;14.04;47.81
64368;BME280;50692;53.314;-6.300;2023-03-14T14:23:48;100544.88;;;14.40;46.96
64368;BME280;50692;53.314;-6.300;2023-03-14T14:26:34;100535.31;;;14.51;45.15
64368;BME280;50692;53.314;-6.300;2023-03-14T14:29:26;100541.53;;;14.62;45.21
64368;BME280;50692;53.314;-6.300;2023-03-14T14:32:14;100537.50;;;14.94;43.52
64368;BME280;50692;53.314;-6.300;2023-03-14T14:35:01;100520.69;;;14.69;43.84
64368;BME280;50692;53.314;-6.300;2023-03-14T14:37:49;100518.38;;;15.00;43.77
64368;BME280;50692;53.314;-6.300;2023-03-14T14:40:44;100514.91;;;14.26;44.36
64368;BME280;50692;53.314;-6.300;2023-03-14T14:43:34;100531.13;;;13.19;46.93
64368;BME280;50692;53.314;-6.300;2023-03-14T14:46:22;100538.66;;;12.44;49.20
64368;BME280;50692;53.314;-6.300;2023-03-14T14:49:13;100544.28;;;12.66;49.90
64368;BME280;50692;53.314;-6.300;2023-03-14T14:52:06;100520.97;;;13.26;48.12
64368;BME280;50692;53.314;-6.300;2023-03-14T14:55:00;100557.25;;;13.25;47.98
64368;BME280;50692;53.314;-6.300;2023-03-14T14:57:53;100586.38;;;12.15;52.93
64368;BME280;50692;53.314;-6.300;2023-03-14T15:00:40;100585.97;;;11.02;57.20
64368;BME280;50692;53.314;-6.300;2023-03-14T15:03:28;100593.22;;;10.36;60.15
64368;BME280;50692;53.314;-6.300;2023-03-14T15:06:16;100601.72;;;10.07;61.39
64368;BME280;50692;53.314;-6.300;2023-03-14T15:09:02;100604.53;;;9.70;62.54
64368;BME280;50692;53.314;-6.300;2023-03-14T15:11:49;100609.56;;;9.22;63.07
64368;BME280;50692;53.314;-6.300;2023-03-14T15:14:34;100616.59;;;8.48;64.44
64368;BME280;50692;53.314;-6.300;2023-03-14T15:17:20;100553.22;;;7.74;66.71
64368;BME280;50692;53.314;-6.300;2023-03-14T15:20:11;100631.56;;;8.27;67.32
64368;BME280;50692;53.314;-6.300;2023-03-14T15:22:58;100638.88;;;8.20;67.79
64368;BME280;50692;53.314;-6.300;2023-03-14T15:25:44;100651.31;;;8.16;68.68
64368;BME280;50692;53.314;-6.300;2023-03-14T15:28:32;100669.13;;;8.11;68.63